Time;durP1;ratioP1;P1;durP2;ratioP2;P2;SDS_P1;SDS_P2;PMS_P1;PMS_P2;Temp;Humidity;BMP_temperature;BMP_pressure;BME280_temperature;BME280_humidity;BME280_pressure;Samples;Min_cycle;Max_cycle;Signal;HPM_P1;HPM_P2
2021/12/15 00:02:23;;;;;;;23.80;15.07;;;5.70;97.10;;;;;;4974892;28;20236;-88
2021/12/15 00:04:52;;;;;;;21.37;14.67;;;5.70;97.00;;;;;;4965747;28;20331;-87
2021/12/15 00:07:21;;;;;;;22.77;13.87;;;5.70;97.10;;;;;;4961623;28;20291;-90
2021/12/15 00:09:48;;;;;;;20.60;13.93;;;5.80;96.90;;;;;;4972004;28;20234;-87
2021/12/15 00:12:17;;;;;;;22.73;14.73;;;5.70;96.50;;;;;;4976124;28;20221;-88
2021/12/15 00:14:45;;;;;;;23.43;14.97;;;5.60;96.40;;;;;;4959824;28;20237;-90
2021/12/15 00:17:13;;;;;;;21.83;14.97;;;5.50;96.90;;;;;;4964760;28;20566;-87
2021/12/15 00:19:40;;;;;;;24.60;15.33;;;5.60;97.30;;;;;;4979888;28;20232;-88
2021/12/15 00:22:07;;;;;;;24.43;14.27;;;5.60;97.30;;;;;;4964881;28;20635;-87
2021/12/15 00:24:36;;;;;;;22.57;14.70;;;5.80;97.10;;;;;;4967891;28;20225;-90
2021/12/15 00:27:06;;;;;;;23.17;14.67;;;5.90;96.70;;;;;;4973026;28;20213;-89
2021/12/15 00:39:54;;;;;;;23.53;14.33;;;5.70;95.90;;;;;;4979241;28;20228;-87
2021/12/15 00:45:43;;;;;;;22.70;14.23;;;5.70;96.90;;;;;;4980979;28;20224;-89
2021/12/15 00:48:10;;;;;;;21.83;13.87;;;5.70;96.90;;;;;;4995206;28;20226;-88
2021/12/15 00:50:37;;;;;;;21.80;14.10;;;5.80;96.80;;;;;;4977285;28;20233;-88
2021/12/15 00:53:06;;;;;;;23.67;14.07;;;5.80;96.50;;;;;;4976989;28;20205;-90
2021/12/15 00:55:35;;;;;;;21.20;14.03;;;5.90;96.30;;;;;;4964494;28;20235;-89
2021/12/15 00:58:03;;;;;;;24.40;14.37;;;5.80;96.10;;;;;;4968561;28;20219;-88
2021/12/15 01:00:32;;;;;;;23.57;13.90;;;5.80;96.20;;;;;;4964847;28;20232;-88
2021/12/15 01:02:59;;;;;;;23.07;13.93;;;5.70;96.10;;;;;;4981964;28;20298;-88
2021/12/15 01:05:32;;;;;;;21.57;14.70;;;5.60;96.30;;;;;;4976213;28;20243;-91
2021/12/15 01:08:00;;;;;;;24.10;14.50;;;5.70;96.80;;;;;;4976854;28;20220;-88
2021/12/15 01:10:42;;;;;;;21.70;14.20;;;5.60;96.70;;;;;;4975879;28;20259;-89
2021/12/15 01:21:20;;;;;;;20.80;13.53;;;6.20;95.30;;;;;;4943916;28;20208;-90
2021/12/15 01:23:47;;;;;;;22.87;13.63;;;6.20;95.30;;;;;;4962831;28;20223;-87
2021/12/15 01:26:17;;;;;;;22.37;14.00;;;6.20;95.30;;;;;;4962896;28;20211;-88
2021/12/15 01:28:45;;;;;;;23.93;14.37;;;6.20;95.30;;;;;;4976231;28;20255;-87
2021/12/15 01:31:12;;;;;;;22.03;13.83;;;6.20;95.30;;;;;;4974947;28;20291;-89
2021/12/15 01:33:40;;;;;;;23.73;13.77;;;6.20;95.30;;;;;;4964863;28;20308;-88
2021/12/15 01:36:11;;;;;;;23.90;14.67;;;6.10;95.30;;;;;;4973223;28;20421;-88
2021/12/15 01:38:41;;;;;;;21.20;13.53;;;6.20;95.30;;;;;;4976089;28;20311;-89
2021/12/15 01:41:20;;;;;;;22.60;14.13;;;6.20;95.30;;;;;;4973261;28;20236;-89
2021/12/15 01:46:53;;;;;;;23.07;13.90;;;6.20;95.30;;;;;;4965415;28;20232;-87
2021/12/15 01:46:57;;;;;;;27.37;14.53;;;6.10;95.30;;;;;;4962605;28;20209;-89
2021/12/15 01:49:37;;;;;;;22.50;14.03;;;6.20;95.30;;;;;;4975476;28;20239;-87
2021/12/15 01:52:07;;;;;;;20.80;13.53;;;6.20;95.30;;;;;;4975727;28;20295;-89
2021/12/15 01:54:35;;;;;;;22.30;13.27;;;6.20;95.30;;;;;;4975557;28;20237;-88
2021/12/15 01:57:03;;;;;;;24.67;14.73;;;6.10;95.40;;;;;;4975133;28;20295;-88
2021/12/15 01:59:31;;;;;;;23.80;14.40;;;5.90;95.30;;;;;;4975659;28;20240;-88
2021/12/15 02:01:58;;;;;;;22.60;14.37;;;5.70;95.50;;;;;;4975681;28;20219;-88
2021/12/15 02:04:26;;;;;;;23.90;14.63;;;5.70;96.30;;;;;;4961669;28;20339;-88
2021/12/15 02:06:54;;;;;;;23.87;14.33;;;5.80;96.30;;;;;;4975916;28;20208;-88
2021/12/15 02:09:38;;;;;;;22.07;13.73;;;5.90;96.20;;;;;;4960588;28;20237;-88
2021/12/15 02:12:05;;;;;;;22.53;14.10;;;5.90;95.70;;;;;;4963253;28;20276;-88
2021/12/15 02:14:34;;;;;;;21.37;13.37;;;5.70;95.20;;;;;;4973961;28;20307;-88
2021/12/15 02:17:01;;;;;;;23.90;14.30;;;5.70;96.00;;;;;;4974852;28;20204;-88
2021/12/15 02:19:28;;;;;;;21.40;13.27;;;5.90;96.10;;;;;;4975107;28;20235;-89
2021/12/15 02:21:59;;;;;;;22.03;14.10;;;5.90;95.90;;;;;;4962135;28;20205;-88
2021/12/15 02:24:26;;;;;;;22.47;14.00;;;5.90;95.90;;;;;;4976296;28;20595;-89
2021/12/15 02:26:58;;;;;;;20.60;13.07;;;5.90;96.00;;;;;;4983718;28;20212;-87
2021/12/15 02:29:26;;;;;;;23.63;13.37;;;5.90;96.10;;;;;;4964525;28;20228;-90
2021/12/15 02:32:06;;;;;;;21.30;13.10;;;5.90;96.00;;;;;;4972887;28;20212;-88
2021/12/15 02:34:55;;;;;;;24.90;14.43;;;6.00;95.70;;;;;;4964904;28;20711;-88
2021/12/15 02:37:22;;;;;;;19.60;12.60;;;6.10;95.30;;;;;;4974018;28;20267;-88
2021/12/15 02:39:52;;;;;;;22.43;13.77;;;6.20;95.30;;;;;;4974729;28;20327;-88
2021/12/15 02:42:20;;;;;;;20.60;12.67;;;6.20;95.00;;;;;;4960679;28;20614;-88
2021/12/15 02:44:47;;;;;;;18.60;11.73;;;6.30;94.80;;;;;;4974597;28;20699;-89
2021/12/15 02:47:22;;;;;;;18.30;12.10;;;6.20;94.60;;;;;;4962448;28;20216;-90
2021/12/15 02:49:50;;;;;;;18.20;11.67;;;6.10;94.90;;;;;;4963331;28;20242;-88
2021/12/15 02:52:17;;;;;;;20.30;12.80;;;6.20;94.80;;;;;;4972774;28;20218;-88
2021/12/15 02:54:46;;;;;;;19.83;12.27;;;6.20;94.60;;;;;;4964109;28;20233;-88
2021/12/15 02:57:13;;;;;;;19.27;12.53;;;6.00;94.90;;;;;;4970741;28;20208;-87
2021/12/15 02:59:54;;;;;;;20.70;12.73;;;6.00;95.10;;;;;;4966211;28;20288;-89
2021/12/15 03:02:52;;;;;;;19.97;12.60;;;6.00;95.30;;;;;;4972191;28;20635;-87
2021/12/15 03:05:24;;;;;;;17.93;11.97;;;6.00;95.30;;;;;;4975191;28;20232;-88
2021/12/15 03:08:00;;;;;;;20.00;12.90;;;6.00;95.30;;;;;;4977875;28;20207;-87
2021/12/15 03:15:59;;;;;;;19.23;12.40;;;5.80;96.00;;;;;;4976646;28;20231;-86
2021/12/15 03:18:28;;;;;;;20.03;13.00;;;5.90;95.90;;;;;;4974674;28;20209;-86
2021/12/15 03:20:58;;;;;;;21.20;13.40;;;5.80;95.50;;;;;;4979020;28;20218;-86
2021/12/15 03:23:31;;;;;;;20.93;14.20;;;5.70;95.50;;;;;;4985581;28;20220;-87
2021/12/15 03:26:01;;;;;;;21.43;13.77;;;5.70;95.80;;;;;;4980887;28;20303;-91
2021/12/15 03:34:11;;;;;;;20.47;13.40;;;5.60;96.50;;;;;;4972416;28;20719;-91
2021/12/15 03:39:41;;;;;;;19.73;13.27;;;5.90;96.10;;;;;;4968741;28;20232;-88
2021/12/15 03:42:11;;;;;;;19.53;12.77;;;6.00;95.70;;;;;;4970735;28;20255;-87
2021/12/15 03:44:41;;;;;;;21.97;13.23;;;6.00;95.30;;;;;;4978153;28;20913;-88
2021/12/15 03:47:11;;;;;;;19.43;12.50;;;5.90;95.30;;;;;;4978039;28;20218;-87
2021/12/15 03:49:38;;;;;;;19.33;12.53;;;5.70;95.20;;;;;;4979658;28;20627;-87
2021/12/15 03:52:08;;;;;;;18.70;12.27;;;5.50;95.70;;;;;;4974468;28;20669;-90
2021/12/15 03:54:35;;;;;;;17.67;11.67;;;5.50;96.50;;;;;;4967557;28;20320;-88
2021/12/15 03:57:02;;;;;;;15.97;11.73;;;5.40;96.10;;;;;;4978046;28;20204;-88
2021/12/15 03:59:33;;;;;;;17.67;12.63;;;5.30;96.40;;;;;;4977320;28;20315;-87
2021/12/15 04:02:00;;;;;;;17.73;12.13;;;5.30;96.30;;;;;;4968435;28;20292;-88
2021/12/15 04:04:27;;;;;;;19.97;12.00;;;5.40;96.50;;;;;;4963912;28;20252;-88
2021/12/15 04:06:55;;;;;;;17.60;12.20;;;5.30;96.70;;;;;;4965360;28;20228;-88
2021/12/15 04:09:21;;;;;;;19.13;12.23;;;5.40;96.30;;;;;;4976519;28;20692;-88
2021/12/15 04:11:49;;;;;;;18.37;12.17;;;5.40;96.10;;;;;;4986423;28;20566;-88
2021/12/15 04:14:21;;;;;;;19.77;12.87;;;5.40;96.10;;;;;;4965332;28;20311;-88
2021/12/15 04:17:01;;;;;;;20.20;13.30;;;5.30;96.10;;;;;;4986209;28;20207;-88
2021/12/15 04:19:29;;;;;;;22.27;14.10;;;5.30;96.60;;;;;;4965050;28;20228;-88
2021/12/15 04:21:56;;;;;;;22.83;13.83;;;5.20;97.00;;;;;;4967769;28;20217;-88
2021/12/15 04:24:24;;;;;;;19.63;13.17;;;5.20;97.10;;;;;;4985226;28;20228;-87
2021/12/15 04:26:51;;;;;;;21.93;14.57;;;5.20;97.20;;;;;;4980510;28;20232;-87
2021/12/15 04:29:18;;;;;;;22.80;14.83;;;5.20;97.30;;;;;;4979715;28;20237;-87
2021/12/15 04:31:52;;;;;;;21.40;14.47;;;5.10;97.60;;;;;;4964564;28;20613;-88
2021/12/15 04:34:19;;;;;;;22.83;14.33;;;5.10;97.70;;;;;;4977569;28;20312;-87
2021/12/15 04:36:48;;;;;;;24.20;14.47;;;5.10;97.70;;;;;;4988888;28;20211;-88
2021/12/15 04:39:18;;;;;;;20.83;14.77;;;5.10;97.70;;;;;;4976571;28;20243;-88
2021/12/15 04:41:48;;;;;;;22.70;14.70;;;5.10;97.70;;;;;;4985955;28;20295;-88
2021/12/15 04:44:17;;;;;;;21.23;13.50;;;5.10;98.10;;;;;;4972307;28;20229;-88
2021/12/15 04:46:47;;;;;;;19.03;13.00;;;5.20;98.10;;;;;;4968336;28;20579;-87
2021/12/15 04:49:18;;;;;;;19.03;12.67;;;5.30;97.90;;;;;;4978915;28;20268;-88
2021/12/15 04:51:47;;;;;;;19.17;12.43;;;5.20;97.80;;;;;;4972905;28;20212;-88
2021/12/15 04:54:15;;;;;;;19.83;12.80;;;5.10;97.70;;;;;;4977691;28;20279;-88
2021/12/15 04:56:42;;;;;;;22.43;12.90;;;5.30;97.70;;;;;;4980393;28;20214;-89
2021/12/15 04:59:09;;;;;;;19.17;12.17;;;5.40;97.40;;;;;;4984843;28;20229;-88
2021/12/15 05:01:36;;;;;;;14.10;9.83;;;5.30;97.20;;;;;;4982428;28;20576;-88
2021/12/15 05:04:04;;;;;;;17.20;11.20;;;5.30;97.60;;;;;;4968759;28;20340;-88
2021/12/15 05:06:32;;;;;;;18.07;11.90;;;5.20;97.30;;;;;;4970744;28;20211;-88
2021/12/15 05:09:00;;;;;;;19.90;10.73;;;5.10;97.60;;;;;;4975764;28;20260;-88
2021/12/15 05:11:27;;;;;;;19.53;10.80;;;5.00;97.70;;;;;;4964238;28;20205;-88
2021/12/15 05:13:54;;;;;;;20.47;10.73;;;5.00;97.90;;;;;;4975210;28;20307;-88
2021/12/15 05:16:21;;;;;;;18.97;11.47;;;5.00;98.10;;;;;;4969819;28;20328;-87
2021/12/15 05:18:49;;;;;;;20.93;13.50;;;5.00;98.10;;;;;;4965227;28;20232;-88
2021/12/15 05:21:16;;;;;;;19.93;12.87;;;4.90;98.20;;;;;;4976030;28;20331;-87
2021/12/15 05:23:53;;;;;;;22.63;12.47;;;4.90;98.40;;;;;;4972703;28;20224;-88
2021/12/15 05:26:20;;;;;;;19.10;12.03;;;4.80;98.70;;;;;;4956380;28;20217;-88
2021/12/15 05:28:47;;;;;;;20.40;13.00;;;4.80;98.80;;;;;;4969049;28;20228;-88
2021/12/15 05:31:14;;;;;;;19.47;12.60;;;4.80;98.70;;;;;;4970007;28;20323;-88
2021/12/15 05:33:41;;;;;;;17.77;11.00;;;4.80;98.80;;;;;;4967517;28;20219;-88
2021/12/15 05:36:08;;;;;;;21.17;11.27;;;4.80;99.00;;;;;;4958765;28;20225;-89
2021/12/15 05:38:36;;;;;;;19.73;12.97;;;4.80;98.80;;;;;;4978537;28;20661;-87
2021/12/15 05:41:04;;;;;;;20.17;13.40;;;4.80;99.00;;;;;;4978727;28;20217;-90
2021/12/15 05:43:32;;;;;;;21.13;13.63;;;4.80;98.60;;;;;;4969253;28;20307;-87
2021/12/15 05:45:59;;;;;;;16.97;11.87;;;5.00;99.10;;;;;;4964664;28;20212;-89
2021/12/15 05:48:26;;;;;;;20.50;13.20;;;5.00;98.50;;;;;;4969740;28;20217;-89
2021/12/15 05:50:54;;;;;;;21.70;13.83;;;5.00;98.30;;;;;;4965446;28;20248;-88
2021/12/15 05:53:22;;;;;;;21.33;14.43;;;4.90;98.30;;;;;;4975255;28;20208;-90
2021/12/15 05:55:50;;;;;;;22.10;14.20;;;5.00;98.70;;;;;;4964800;28;20343;-88
2021/12/15 05:58:18;;;;;;;20.60;14.07;;;5.20;98.20;;;;;;4962514;28;20197;-88
2021/12/15 06:00:50;;;;;;;21.97;14.63;;;5.10;98.00;;;;;;4975062;28;20232;-87
2021/12/15 06:03:18;;;;;;;21.43;15.03;;;5.10;98.10;;;;;;4975358;28;20905;-87
2021/12/15 06:05:45;;;;;;;24.33;15.87;;;5.00;98.10;;;;;;4974184;28;20228;-86
2021/12/15 06:08:12;;;;;;;25.03;16.07;;;5.10;98.20;;;;;;4975259;28;20295;-86
2021/12/15 06:10:40;;;;;;;26.60;16.93;;;5.00;98.20;;;;;;4970358;28;20287;-88
2021/12/15 06:13:10;;;;;;;25.50;16.57;;;5.20;98.50;;;;;;4965734;28;20197;-89
2021/12/15 06:15:40;;;;;;;25.93;17.50;;;5.20;98.30;;;;;;4976135;28;20232;-88
2021/12/15 06:18:09;;;;;;;26.07;16.43;;;5.30;98.00;;;;;;4977668;28;20201;-91
2021/12/15 06:20:37;;;;;;;24.77;16.00;;;5.30;97.70;;;;;;4976083;28;20224;-90
2021/12/15 06:23:10;;;;;;;23.93;16.20;;;5.20;98.00;;;;;;4974000;28;20239;-91
2021/12/15 06:25:38;;;;;;;22.70;15.13;;;5.20;98.20;;;;;;4973511;28;20239;-88
2021/12/15 06:28:06;;;;;;;27.10;15.47;;;5.40;98.10;;;;;;4958185;28;20209;-91
2021/12/15 06:30:33;;;;;;;24.30;15.40;;;5.50;97.80;;;;;;4981313;28;20228;-88
2021/12/15 06:33:01;;;;;;;25.43;15.60;;;5.50;97.30;;;;;;4967378;28;20284;-88
2021/12/15 06:35:28;;;;;;;26.87;16.00;;;5.40;97.50;;;;;;4979401;28;20238;-87
2021/12/15 06:37:55;;;;;;;23.77;15.00;;;5.30;97.70;;;;;;4976579;28;20200;-87
2021/12/15 06:40:22;;;;;;;24.60;15.03;;;5.30;97.60;;;;;;4967751;28;20236;-87
2021/12/15 06:42:49;;;;;;;22.20;14.50;;;5.20;97.70;;;;;;4970179;28;20196;-87
2021/12/15 06:45:21;;;;;;;20.50;13.30;;;5.20;97.80;;;;;;4973536;28;20263;-89
2021/12/15 06:58:43;;;;;;;18.07;13.07;;;5.10;98.00;;;;;;4974698;28;20247;-87
2021/12/15 07:01:15;;;;;;;22.37;14.17;;;5.00;98.10;;;;;;4965351;28;20232;-87
2021/12/15 07:03:45;;;;;;;21.50;14.20;;;5.00;98.40;;;;;;4964976;28;20216;-87
2021/12/15 07:06:13;;;;;;;21.83;13.93;;;5.00;98.40;;;;;;4987048;28;20646;-86
2021/12/15 07:08:40;;;;;;;23.20;14.53;;;5.00;98.30;;;;;;4976276;28;20251;-87
2021/12/15 07:11:08;;;;;;;24.93;15.83;;;5.10;98.10;;;;;;4966341;28;20229;-88
2021/12/15 07:13:37;;;;;;;23.60;15.83;;;5.10;98.20;;;;;;4954795;28;20216;-88
2021/12/15 07:16:08;;;;;;;27.83;16.00;;;5.10;98.00;;;;;;4957821;28;20189;-87
2021/12/15 07:18:46;;;;;;;27.47;18.20;;;5.10;97.80;;;;;;4980517;28;20238;-87
2021/12/15 07:21:19;;;;;;;32.77;17.93;;;5.10;98.00;;;;;;4977504;28;20202;-88
2021/12/15 07:23:49;;;;;;;30.63;17.37;;;5.20;98.00;;;;;;4986741;28;20254;-88
2021/12/15 07:26:21;;;;;;;29.30;17.87;;;5.20;98.00;;;;;;4974052;28;20243;-88
2021/12/15 07:28:49;;;;;;;31.30;17.03;;;5.20;98.20;;;;;;4973781;28;20243;-89
2021/12/15 07:31:17;;;;;;;32.13;17.40;;;5.30;98.10;;;;;;4972528;28;20248;-88
2021/12/15 07:33:45;;;;;;;28.00;16.47;;;5.30;97.70;;;;;;4969128;28;20261;-88
2021/12/15 07:36:16;;;;;;;33.40;18.57;;;5.30;97.60;;;;;;4981848;28;20231;-87
2021/12/15 07:38:43;;;;;;;31.67;17.77;;;5.30;97.50;;;;;;4973404;28;20207;-88
2021/12/15 07:41:22;;;;;;;35.37;18.70;;;5.30;97.70;;;;;;4975562;28;20207;-89
2021/12/15 07:43:50;;;;;;;39.17;20.17;;;5.40;97.80;;;;;;4964918;28;20781;-87
2021/12/15 07:46:20;;;;;;;35.70;19.27;;;5.40;97.50;;;;;;4962047;28;20212;-87
2021/12/15 07:48:47;;;;;;;33.13;19.17;;;5.20;97.60;;;;;;4966357;28;20244;-89
2021/12/15 07:51:15;;;;;;;36.87;19.53;;;5.20;97.80;;;;;;4967489;28;20224;-87
2021/12/15 07:53:43;;;;;;;35.43;19.27;;;5.20;97.90;;;;;;4971532;28;20668;-87
2021/12/15 07:56:12;;;;;;;33.53;19.27;;;5.20;98.10;;;;;;4972707;28;20670;-87
2021/12/15 07:58:39;;;;;;;38.83;21.30;;;5.30;98.10;;;;;;4972397;28;20215;-86
2021/12/15 08:01:07;;;;;;;37.97;20.43;;;5.20;98.10;;;;;;4972649;28;20208;-88
2021/12/15 08:03:37;;;;;;;35.53;19.63;;;5.20;98.40;;;;;;4973035;28;20210;-86
2021/12/15 08:06:06;;;;;;;34.93;19.80;;;5.30;98.50;;;;;;4973067;28;20205;-88
2021/12/15 08:08:34;;;;;;;36.17;19.60;;;5.30;98.50;;;;;;4973033;28;20576;-89
2021/12/15 08:11:01;;;;;;;34.27;19.23;;;5.50;98.20;;;;;;4976317;28;20255;-87
2021/12/15 08:13:32;;;;;;;36.97;19.73;;;5.50;97.50;;;;;;4965944;28;20293;-88
2021/12/15 08:16:00;;;;;;;31.67;18.00;;;5.60;97.50;;;;;;4958162;29;20208;-88
2021/12/15 08:18:27;;;;;;;33.73;18.37;;;5.60;97.30;;;;;;4958164;28;20280;-92
2021/12/15 08:20:55;;;;;;;33.70;19.07;;;5.50;97.50;;;;;;4959117;28;20208;-87
2021/12/15 08:23:23;;;;;;;32.60;17.77;;;5.60;97.60;;;;;;4969965;28;20484;-87
2021/12/15 08:25:52;;;;;;;28.67;16.20;;;5.60;97.60;;;;;;4958083;28;20217;-87
2021/12/15 08:28:20;;;;;;;27.07;15.37;;;5.70;97.50;;;;;;4965031;28;20215;-88
2021/12/15 08:30:48;;;;;;;26.03;14.87;;;5.70;97.30;;;;;;4964723;28;20229;-87
2021/12/15 08:33:18;;;;;;;24.97;15.07;;;5.70;97.30;;;;;;4964012;28;20292;-88
2021/12/15 08:35:48;;;;;;;27.30;15.60;;;5.60;97.20;;;;;;4976600;28;20236;-88
2021/12/15 08:38:16;;;;;;;27.33;15.83;;;5.50;97.30;;;;;;4976424;28;20208;-87
2021/12/15 08:40:43;;;;;;;25.97;15.57;;;5.40;97.60;;;;;;4976242;28;20707;-87
2021/12/15 08:43:13;;;;;;;27.37;15.47;;;5.40;97.90;;;;;;4962889;28;20229;-88
2021/12/15 08:45:42;;;;;;;26.50;15.00;;;5.40;98.10;;;;;;4967968;28;20336;-87
2021/12/15 08:48:10;;;;;;;23.43;14.47;;;5.40;98.10;;;;;;4958505;28;20316;-90
2021/12/15 08:50:40;;;;;;;26.80;14.70;;;5.40;98.30;;;;;;4975668;28;20349;-87
2021/12/15 08:53:10;;;;;;;23.37;14.73;;;5.40;98.20;;;;;;4962291;28;20215;-90
2021/12/15 08:55:39;;;;;;;24.63;14.60;;;5.50;98.30;;;;;;4957099;28;20244;-87
2021/12/15 08:58:11;;;;;;;24.57;14.67;;;5.70;98.10;;;;;;4970186;28;20213;-87
2021/12/15 09:00:40;;;;;;;25.17;14.80;;;5.70;97.70;;;;;;4956468;28;20233;-84
2021/12/15 09:03:07;;;;;;;22.63;13.93;;;5.70;97.60;;;;;;4968828;28;20208;-85
2021/12/15 09:05:34;;;;;;;23.20;14.90;;;5.70;97.80;;;;;;4975818;28;20704;-85
2021/12/15 09:08:02;;;;;;;25.70;14.67;;;5.60;97.80;;;;;;4977328;28;20545;-85
2021/12/15 09:10:32;;;;;;;25.40;14.33;;;5.60;97.80;;;;;;4977348;28;20236;-85
2021/12/15 09:13:00;;;;;;;21.67;13.87;;;5.80;98.20;;;;;;4978387;28;20287;-85
2021/12/15 09:15:27;;;;;;;24.23;14.87;;;5.90;98.00;;;;;;4978121;28;20904;-84
2021/12/15 09:17:56;;;;;;;21.13;13.53;;;6.10;97.60;;;;;;4977819;28;20686;-85
2021/12/15 09:20:26;;;;;;;22.13;13.50;;;6.10;97.30;;;;;;4978918;28;20228;-84
2021/12/15 09:22:54;;;;;;;21.83;13.47;;;6.20;96.80;;;;;;4977045;28;20659;-86
2021/12/15 09:25:21;;;;;;;20.87;12.70;;;6.10;96.60;;;;;;4963260;28;20271;-87
2021/12/15 09:27:48;;;;;;;20.73;12.37;;;6.20;96.70;;;;;;4955799;28;20242;-88
2021/12/15 09:56:48;;;;;;;18.93;12.47;;;6.20;96.50;;;;;;5015790;28;20234;-88
2021/12/15 10:02:08;;;;;;;16.45;11.25;;;6.10;96.70;;;;;;5001223;28;20561;-87
2021/12/15 10:04:43;;;;;;;17.77;12.00;;;6.20;96.80;;;;;;5009439;28;20686;-85
2021/12/15 10:24:45;;;;;;;20.07;12.40;;;6.10;97.00;;;;;;5017044;28;20195;-86
2021/12/15 10:27:13;;;;;;;19.43;12.13;;;6.10;97.10;;;;;;4999668;28;20668;-87
2021/12/15 10:30:31;;;;;;;19.70;12.50;;;6.20;97.10;;;;;;5017238;28;20630;-86
2021/12/15 10:33:01;;;;;;;19.83;12.67;;;6.20;97.00;;;;;;5017358;28;20195;-89
2021/12/15 10:48:10;;;;;;;14.80;10.43;;;6.60;95.90;;;;;;5018168;28;20218;-89
2021/12/15 10:50:40;;;;;;;15.65;10.18;;;6.60;95.40;;;;;;5023144;28;20262;-88
2021/12/15 10:53:33;;;;;;;13.85;9.77;;;6.60;95.40;;;;;;5021265;28;20184;-89
2021/12/15 10:56:10;;;;;;;15.83;9.70;;;6.70;95.40;;;;;;5011889;28;20203;-89
2021/12/15 10:58:40;;;;;;;14.23;10.03;;;6.60;95.40;;;;;;4996376;28;20187;-89
2021/12/15 11:01:38;;;;;;;9.67;7.10;;;6.60;95.40;;;;;;4996030;28;20310;-89
2021/12/15 11:07:59;;;;;;;10.32;7.80;;;6.60;95.40;;;;;;4995773;28;20210;-89
2021/12/15 11:10:30;;;;;;;8.57;6.57;;;6.70;95.40;;;;;;4995146;28;20227;-89
2021/12/15 11:13:00;;;;;;;9.68;6.80;;;6.60;95.20;;;;;;4994922;28;20286;-90
2021/12/15 11:15:29;;;;;;;8.70;6.43;;;6.50;95.40;;;;;;4994779;28;20192;-90
2021/12/15 11:17:59;;;;;;;9.40;6.27;;;6.30;95.40;;;;;;4996352;28;20566;-89
2021/12/15 11:20:29;;;;;;;8.00;5.97;;;6.20;96.20;;;;;;5013202;28;20293;-89
2021/12/15 11:23:11;;;;;;;8.07;5.50;;;6.20;96.00;;;;;;5014846;28;20655;-90
2021/12/15 11:25:45;;;;;;;6.37;5.07;;;6.20;96.10;;;;;;5014990;28;20566;-89
2021/12/15 11:28:19;;;;;;;7.27;5.43;;;6.20;96.20;;;;;;5014327;28;20244;-89
2021/12/15 11:30:50;;;;;;;7.93;5.03;;;6.30;96.10;;;;;;5014164;28;20681;-90
2021/12/15 11:33:20;;;;;;;8.73;5.37;;;6.30;96.30;;;;;;5014065;28;20190;-89
2021/12/15 11:35:50;;;;;;;9.03;5.00;;;6.30;96.20;;;;;;5013885;28;20223;-89
2021/12/15 11:38:22;;;;;;;8.17;5.67;;;6.30;95.90;;;;;;5014075;28;20631;-89
2021/12/15 13:09:15;;;;;;;5.97;3.87;;;6.40;94.40;;;;;;4997099;28;20224;-86
2021/12/15 13:11:47;;;;;;;6.17;4.27;;;6.40;95.20;;;;;;4982952;28;20228;-86
2021/12/15 13:14:16;;;;;;;5.27;4.10;;;6.60;94.80;;;;;;5002420;28;20285;-86
2021/12/15 13:16:47;;;;;;;6.83;4.20;;;6.60;94.50;;;;;;5003319;28;20216;-86
2021/12/15 13:19:19;;;;;;;4.72;3.92;;;6.60;94.60;;;;;;4997129;28;20223;-88
2021/12/15 13:22:20;;;;;;;5.22;4.25;;;6.50;94.10;;;;;;5006796;28;20224;-88
2021/12/15 13:31:32;;;;;;;7.20;4.73;;;6.40;94.50;;;;;;5001886;28;20222;-87
2021/12/15 13:34:01;;;;;;;6.00;4.78;;;6.40;94.70;;;;;;5002697;28;20385;-86
2021/12/15 13:36:40;;;;;;;6.87;4.77;;;6.40;94.70;;;;;;5001656;28;20271;-87
2021/12/15 13:39:10;;;;;;;6.18;4.80;;;6.40;94.40;;;;;;5000632;28;20644;-87
2021/12/15 13:41:54;;;;;;;7.33;4.83;;;6.40;94.60;;;;;;5001935;28;20548;-87
2021/12/15 13:59:56;;;;;;;8.87;6.33;;;6.30;94.80;;;;;;5005512;28;20277;-87
2021/12/15 14:02:25;;;;;;;7.60;5.50;;;6.20;95.00;;;;;;5018788;28;20644;-87
2021/12/15 14:04:55;;;;;;;8.67;6.07;;;6.30;95.10;;;;;;5003597;28;20342;-87
2021/12/15 14:07:41;;;;;;;7.37;5.53;;;6.20;95.30;;;;;;4999797;28;20200;-87
2021/12/15 14:10:40;;;;;;;7.93;6.03;;;6.30;95.30;;;;;;4982594;28;20200;-87
2021/12/15 14:13:08;;;;;;;8.80;5.63;;;6.40;95.40;;;;;;4999455;28;20188;-87
2021/12/15 14:15:49;;;;;;;7.00;4.80;;;6.50;94.60;;;;;;4990687;28;20208;-87
2021/12/15 14:18:28;;;;;;;7.80;5.87;;;6.40;94.40;;;;;;4999694;28;20274;-87
2021/12/15 14:20:59;;;;;;;9.77;6.43;;;6.30;94.50;;;;;;4998276;28;20229;-87
2021/12/15 14:23:29;;;;;;;7.97;5.83;;;6.20;94.70;;;;;;4999605;28;20188;-87
2021/12/15 14:25:59;;;;;;;8.10;5.83;;;6.10;95.30;;;;;;4999796;28;20188;-87
2021/12/15 14:28:30;;;;;;;7.00;5.53;;;6.10;95.30;;;;;;5000363;28;20607;-87
2021/12/15 14:34:23;;;;;;;9.20;5.70;;;6.10;95.30;;;;;;4998716;28;20226;-87
2021/12/15 14:36:52;;;;;;;8.03;6.20;;;6.10;95.30;;;;;;5005195;28;20199;-87
2021/12/15 14:39:21;;;;;;;8.30;6.07;;;5.90;95.30;;;;;;5008542;28;20782;-89
2021/12/15 14:41:51;;;;;;;9.00;6.30;;;5.90;95.90;;;;;;5009221;28;20204;-88
2021/12/15 14:44:21;;;;;;;8.13;6.17;;;5.90;95.90;;;;;;5007385;28;20239;-88
2021/12/15 14:46:53;;;;;;;10.13;5.97;;;5.90;96.00;;;;;;4994211;28;20232;-88
2021/12/15 14:52:50;;;;;;;8.80;5.53;;;6.00;95.70;;;;;;4978466;28;20676;-91
2021/12/15 14:55:23;;;;;;;8.50;5.53;;;5.90;95.50;;;;;;4972574;28;20243;-87
2021/12/15 14:57:50;;;;;;;8.67;5.67;;;6.00;95.30;;;;;;4996959;28;20208;-87
2021/12/15 15:00:20;;;;;;;7.93;6.03;;;6.00;95.30;;;;;;4979891;28;20235;-87
2021/12/15 15:02:49;;;;;;;8.07;6.00;;;6.10;95.30;;;;;;4997322;28;20239;-86
2021/12/15 15:05:20;;;;;;;8.03;5.63;;;6.10;95.30;;;;;;4996552;28;20227;-86
2021/12/15 15:08:05;;;;;;;7.73;5.80;;;6.00;95.30;;;;;;4998194;28;20271;-86
2021/12/15 15:10:37;;;;;;;7.70;5.60;;;5.80;95.20;;;;;;4977634;28;20236;-87
2021/12/15 15:13:04;;;;;;;8.37;5.80;;;5.80;95.60;;;;;;4998370;28;20566;-86
2021/12/15 15:19:16;;;;;;;7.57;5.50;;;6.00;96.00;;;;;;4998326;28;20635;-86
2021/12/15 15:21:44;;;;;;;7.07;5.20;;;6.10;95.80;;;;;;4996547;28;20643;-88
2021/12/15 15:24:27;;;;;;;8.90;5.53;;;6.30;95.40;;;;;;4992416;28;20307;-89
2021/12/15 15:27:00;;;;;;;7.47;5.50;;;6.40;95.40;;;;;;4992130;28;20235;-86
2021/12/15 15:29:33;;;;;;;8.77;5.97;;;6.40;94.90;;;;;;4991756;28;20227;-90
2021/12/15 15:32:24;;;;;;;8.43;6.47;;;6.50;94.80;;;;;;4993658;28;20595;-86
2021/12/15 15:34:55;;;;;;;9.27;6.77;;;6.30;94.80;;;;;;4987785;28;20228;-89
2021/12/15 15:37:28;;;;;;;10.63;6.73;;;6.30;94.90;;;;;;4984383;28;20208;-87
2021/12/15 15:40:27;;;;;;;11.13;7.27;;;6.30;95.30;;;;;;4990363;28;20223;-86
2021/12/15 15:42:59;;;;;;;9.57;6.97;;;6.10;95.30;;;;;;4998771;28;20579;-86
2021/12/15 15:45:37;;;;;;;7.57;6.47;;;6.10;95.30;;;;;;4993942;28;20725;-86
2021/12/15 15:48:06;;;;;;;10.00;7.20;;;5.90;95.60;;;;;;4993573;28;20715;-87
2021/12/15 15:50:35;;;;;;;8.13;6.03;;;5.90;95.50;;;;;;4995520;28;20262;-86
2021/12/15 15:53:05;;;;;;;7.30;5.47;;;6.00;95.80;;;;;;4997289;28;20315;-89
2021/12/15 15:55:35;;;;;;;8.00;6.70;;;6.10;95.80;;;;;;4995971;28;20247;-86
2021/12/15 15:58:06;;;;;;;11.50;7.57;;;6.10;95.30;;;;;;4999150;28;20238;-89
2021/12/15 16:00:38;;;;;;;9.90;6.87;;;6.00;95.50;;;;;;4995589;28;20641;-91
2021/12/15 16:03:08;;;;;;;8.73;7.10;;;6.00;95.80;;;;;;4991468;28;20290;-90
2021/12/15 16:05:37;;;;;;;10.40;7.93;;;5.90;95.90;;;;;;4987341;28;20315;-87
2021/12/15 16:08:22;;;;;;;10.23;7.47;;;5.90;96.10;;;;;;4986759;28;20199;-88
2021/12/15 16:10:54;;;;;;;11.63;7.57;;;5.80;96.40;;;;;;4991850;28;20725;-87
2021/12/15 16:13:23;;;;;;;10.33;7.53;;;5.80;96.40;;;;;;4991458;28;20220;-87
2021/12/15 16:15:55;;;;;;;9.43;7.57;;;5.80;96.30;;;;;;4996216;28;20670;-87
2021/12/15 16:18:29;;;;;;;9.20;7.27;;;5.80;96.50;;;;;;4990023;28;20595;-87
2021/12/15 16:22:49;;;;;;;11.40;8.40;;;5.80;96.60;;;;;;4986413;28;20235;-90
2021/12/15 16:24:12;;;;;;;10.07;7.87;;;5.80;96.60;;;;;;4995647;28;20284;-89
2021/12/15 16:30:16;;;;;;;10.03;7.40;;;5.70;96.60;;;;;;4982771;28;20322;-90
2021/12/15 16:33:25;;;;;;;10.60;7.93;;;5.60;96.70;;;;;;4989856;28;20292;-89
2021/12/15 16:36:20;;;;;;;10.30;7.40;;;5.70;97.00;;;;;;4978382;28;20219;-90
2021/12/15 16:38:53;;;;;;;9.03;7.27;;;5.80;97.00;;;;;;4987112;28;20232;-92
2021/12/15 16:41:23;;;;;;;10.93;8.53;;;5.90;96.60;;;;;;4998571;28;20199;-90
2021/12/15 16:43:53;;;;;;;10.80;8.40;;;5.80;96.50;;;;;;4997193;28;20250;-90
2021/12/15 16:46:27;;;;;;;9.03;7.20;;;5.90;96.60;;;;;;5004717;28;20269;-91
2021/12/15 16:49:41;;;;;;;9.47;7.47;;;5.90;96.70;;;;;;5005892;28;20258;-89
2021/12/15 16:52:11;;;;;;;11.07;8.50;;;5.90;96.40;;;;;;4995773;28;20222;-90
2021/12/15 16:54:44;;;;;;;10.63;8.23;;;5.90;96.20;;;;;;4985370;28;20228;-88
2021/12/15 16:57:16;;;;;;;11.17;8.50;;;5.80;96.40;;;;;;4991642;28;20231;-88
2021/12/15 16:59:48;;;;;;;12.03;8.80;;;5.70;96.60;;;;;;4988256;28;20804;-87